createdAt,value
2022-09-25T00:01:51.400Z,15.45
2022-09-25T00:04:19.443Z,15.45
2022-09-25T00:06:47.583Z,15.43
2022-09-25T00:09:14.825Z,15.41
2022-09-25T00:11:41.208Z,15.40
2022-09-25T00:14:07.598Z,15.40
2022-09-25T00:16:34.051Z,15.38
2022-09-25T00:19:19.828Z,15.38
2022-09-25T00:21:52.902Z,15.37
2022-09-25T00:24:20.060Z,15.35
2022-09-25T00:26:46.457Z,15.35
2022-09-25T00:29:18.031Z,15.34
2022-09-25T00:31:44.611Z,15.33
2022-09-25T00:34:11.395Z,15.32
2022-09-25T00:36:37.971Z,15.33
2022-09-25T00:39:04.730Z,15.31
2022-09-25T00:41:31.974Z,15.32
2022-09-25T00:44:00.133Z,15.30
2022-09-25T00:46:37.125Z,15.28
2022-09-25T00:49:09.999Z,15.29
2022-09-25T00:51:42.911Z,15.27
2022-09-25T00:54:19.384Z,15.27
2022-09-25T00:56:48.184Z,15.27
2022-09-25T00:59:17.655Z,15.28
2022-09-25T01:01:44.724Z,15.28
2022-09-25T01:04:12.931Z,15.27
2022-09-25T01:06:39.575Z,15.25
2022-09-25T01:09:06.153Z,15.23
2022-09-25T01:11:32.681Z,15.22
2022-09-25T01:14:02.572Z,15.22
2022-09-25T01:16:44.727Z,15.21
2022-09-25T01:19:20.236Z,15.18
2022-09-25T01:22:35.606Z,15.16
2022-09-25T01:25:11.893Z,15.14
2022-09-25T01:27:43.276Z,15.11
2022-09-25T01:30:15.547Z,15.10
2022-09-25T01:33:01.529Z,15.08
2022-09-25T01:36:00.035Z,15.08
2022-09-25T01:39:05.875Z,15.08
2022-09-25T01:41:45.126Z,15.07
2022-09-25T01:44:15.890Z,15.07
2022-09-25T01:46:46.870Z,15.06
2022-09-25T01:49:18.951Z,15.05
2022-09-25T01:51:52.335Z,15.04
2022-09-25T01:54:22.889Z,15.02
2022-09-25T01:56:54.416Z,15.02
2022-09-25T01:59:33.575Z,15.00
2022-09-25T02:02:01.652Z,14.98
2022-09-25T02:04:47.213Z,14.98
2022-09-25T02:07:18.281Z,14.97
2022-09-25T02:09:48.966Z,14.96
2022-09-25T02:12:19.395Z,14.95
2022-09-25T02:14:51.709Z,14.94
2022-09-25T02:17:42.727Z,14.94
2022-09-25T02:20:28.283Z,14.92
2022-09-25T02:22:55.376Z,14.92
2022-09-25T02:25:37.616Z,14.92
2022-09-25T02:28:04.216Z,14.91
2022-09-25T02:30:30.735Z,14.90
2022-09-25T02:32:58.103Z,14.89
2022-09-25T02:35:25.930Z,14.89
2022-09-25T02:37:53.617Z,14.88
2022-09-25T02:40:20.807Z,14.88
2022-09-25T02:42:52.315Z,14.86
2022-09-25T02:45:55.010Z,14.86
2022-09-25T02:48:47.618Z,14.86
2022-09-25T02:51:26.808Z,14.85
2022-09-25T02:54:02.153Z,14.83
2022-09-25T02:56:45.077Z,14.81
2022-09-25T02:59:18.682Z,14.80
2022-09-25T03:01:46.850Z,14.80
2022-09-25T03:04:14.655Z,14.79
2022-09-25T03:06:41.591Z,14.76
2022-09-25T03:09:09.428Z,14.76
2022-09-25T03:11:41.468Z,14.74
2022-09-25T03:14:08.129Z,14.71
2022-09-25T03:16:49.957Z,14.69
2022-09-25T03:19:16.513Z,14.67
2022-09-25T03:21:43.016Z,14.65
2022-09-25T03:24:09.638Z,14.63
2022-09-25T03:26:36.341Z,14.62
2022-09-25T03:29:03.156Z,14.62
2022-09-25T03:31:30.225Z,14.59
2022-09-25T03:33:56.984Z,14.57
2022-09-25T03:36:25.398Z,14.57
2022-09-25T03:38:57.797Z,14.55
2022-09-25T03:41:26.751Z,14.52
2022-09-25T03:43:53.826Z,14.49
2022-09-25T03:46:22.774Z,14.49
2022-09-25T03:48:49.632Z,14.47
2022-09-25T03:51:16.045Z,14.47
2022-09-25T03:53:42.432Z,14.47
2022-09-25T03:56:12.517Z,14.44
2022-09-25T03:58:39.355Z,14.45
2022-09-25T04:01:06.682Z,14.44
2022-09-25T04:03:34.324Z,14.43
2022-09-25T04:06:04.844Z,14.42
2022-09-25T04:08:32.655Z,14.41
2022-09-25T04:10:59.771Z,14.41
2022-09-25T04:13:34.347Z,14.41
2022-09-25T04:16:01.823Z,14.40
2022-09-25T04:18:31.466Z,14.39
2022-09-25T04:20:59.080Z,14.38
2022-09-25T04:23:25.614Z,14.36
2022-09-25T04:25:52.326Z,14.36
2022-09-25T04:28:18.745Z,14.34
2022-09-25T04:30:45.242Z,14.34
2022-09-25T04:33:30.274Z,14.35
2022-09-25T04:35:56.814Z,14.33
2022-09-25T04:38:23.267Z,14.32
2022-09-25T04:40:49.712Z,14.30
2022-09-25T04:43:16.146Z,14.30
2022-09-25T04:45:42.679Z,14.28
2022-09-25T04:48:09.226Z,14.27
2022-09-25T04:50:35.894Z,14.26
2022-09-25T04:53:02.945Z,14.25
2022-09-25T04:55:29.352Z,14.21
2022-09-25T04:57:59.289Z,14.19
2022-09-25T05:00:29.373Z,14.19
2022-09-25T05:02:55.888Z,14.19
2022-09-25T05:05:22.475Z,14.17
2022-09-25T05:07:56.797Z,14.15
2022-09-25T05:10:24.842Z,14.14
2022-09-25T05:12:55.546Z,14.12
2022-09-25T05:15:22.310Z,14.09
2022-09-25T05:17:48.972Z,14.07
2022-09-25T05:20:16.082Z,14.08
2022-09-25T05:22:42.514Z,14.08
2022-09-25T05:25:09.637Z,14.09
2022-09-25T05:27:36.025Z,14.10
2022-09-25T05:30:02.480Z,14.10
2022-09-25T05:32:29.347Z,14.10
2022-09-25T05:34:55.737Z,14.09
2022-09-25T05:37:22.163Z,14.09
2022-09-25T05:39:48.730Z,14.09
2022-09-25T05:42:18.345Z,14.10
2022-09-25T05:44:44.763Z,14.09
2022-09-25T05:47:11.265Z,14.10
2022-09-25T05:49:37.777Z,14.10
2022-09-25T05:52:04.187Z,14.10
2022-09-25T05:54:30.635Z,14.10
2022-09-25T05:56:57.019Z,14.11
2022-09-25T05:59:23.425Z,14.12
2022-09-25T06:01:51.235Z,14.13
2022-09-25T06:04:17.685Z,14.15
2022-09-25T06:06:44.071Z,14.17
2022-09-25T06:09:10.496Z,14.17
2022-09-25T06:11:36.902Z,14.20
2022-09-25T06:14:03.883Z,14.22
2022-09-25T06:16:31.078Z,14.24
2022-09-25T06:18:57.574Z,14.29
2022-09-25T06:21:24.288Z,14.31
2022-09-25T06:23:50.728Z,14.32
2022-09-25T06:26:17.155Z,14.34
2022-09-25T06:28:43.563Z,14.38
2022-09-25T06:31:09.984Z,14.41
2022-09-25T06:33:36.448Z,14.43
2022-09-25T06:36:05.522Z,14.48
2022-09-25T06:38:34.316Z,14.56
2022-09-25T06:41:01.006Z,14.65
2022-09-25T06:43:28.117Z,14.72
2022-09-25T06:45:54.611Z,14.80
2022-09-25T06:48:22.092Z,14.91
2022-09-25T06:50:52.288Z,14.99
2022-09-25T06:53:19.946Z,15.12
2022-09-25T06:55:46.814Z,15.21
2022-09-25T06:58:23.551Z,15.29
2022-09-25T07:00:51.530Z,15.37
2022-09-25T07:03:36.518Z,15.42
2022-09-25T07:06:04.585Z,15.49
2022-09-25T07:08:31.101Z,15.51
2022-09-25T07:10:58.509Z,15.54
2022-09-25T07:13:30.257Z,15.57
2022-09-25T07:15:58.369Z,15.62
2022-09-25T07:18:25.878Z,15.68
2022-09-25T07:20:52.893Z,15.72
2022-09-25T07:23:21.067Z,15.68
2022-09-25T07:25:48.115Z,15.72
2022-09-25T07:28:15.879Z,15.72
2022-09-25T07:30:42.642Z,15.74
2022-09-25T07:33:09.496Z,15.77
2022-09-25T07:35:36.990Z,15.80
2022-09-25T07:38:04.912Z,15.83
2022-09-25T07:40:35.187Z,15.86
2022-09-25T07:43:02.570Z,15.90
2022-09-25T07:45:29.442Z,15.92
2022-09-25T07:48:00.733Z,15.92
2022-09-25T07:50:31.329Z,15.91
2022-09-25T07:52:58.265Z,15.93
2022-09-25T07:55:24.836Z,15.92
2022-09-25T07:57:52.055Z,15.96
2022-09-25T08:00:18.751Z,15.96
2022-09-25T08:02:45.256Z,16.01
2022-09-25T08:05:11.740Z,16.07
2022-09-25T08:07:38.471Z,16.17
2022-09-25T08:10:05.431Z,16.21
2022-09-25T08:12:31.835Z,16.16
2022-09-25T08:14:58.293Z,16.23
2022-09-25T08:17:24.691Z,16.30
2022-09-25T08:19:51.091Z,16.31
2022-09-25T08:22:17.495Z,16.37
2022-09-25T08:24:43.970Z,16.38
2022-09-25T08:27:10.385Z,16.40
2022-09-25T08:29:36.784Z,16.41
2022-09-25T08:32:03.181Z,16.44
2022-09-25T08:34:40.586Z,16.44
2022-09-25T08:37:10.070Z,16.46
2022-09-25T08:39:36.727Z,16.44
2022-09-25T08:42:03.655Z,16.41
2022-09-25T08:45:09.106Z,16.41
2022-09-25T08:47:53.190Z,16.49
2022-09-25T08:50:22.523Z,16.55
2022-09-25T08:52:52.230Z,16.63
2022-09-25T08:55:48.652Z,16.66
2022-09-25T08:58:22.119Z,16.69
2022-09-25T09:00:49.074Z,16.75
2022-09-25T09:03:17.001Z,16.87
2022-09-25T09:05:51.444Z,16.93
2022-09-25T09:08:20.524Z,16.94
2022-09-25T09:10:53.093Z,16.87
2022-09-25T09:13:28.705Z,16.92
2022-09-25T09:16:01.340Z,16.97
2022-09-25T09:18:35.526Z,16.94
2022-09-25T09:21:20.418Z,16.93
2022-09-25T09:24:05.957Z,16.93
2022-09-25T09:26:49.837Z,16.90
2022-09-25T09:29:44.463Z,16.94
2022-09-25T09:32:37.814Z,17.00
2022-09-25T09:35:10.417Z,17.05
2022-09-25T09:37:53.943Z,17.09
2022-09-25T09:40:34.057Z,17.09
2022-09-25T09:43:14.633Z,17.08
2022-09-25T09:45:46.587Z,17.14
2022-09-25T09:48:35.980Z,17.22
2022-09-25T09:51:21.715Z,17.22
2022-09-25T09:53:58.885Z,17.18
2022-09-25T09:56:28.939Z,17.18
2022-09-25T09:58:58.524Z,17.24
2022-09-25T10:01:43.017Z,17.30
2022-09-25T10:04:15.922Z,17.35
2022-09-25T10:06:46.823Z,17.40
2022-09-25T10:09:15.278Z,17.41
2022-09-25T10:11:43.762Z,17.45
2022-09-25T10:14:16.516Z,17.52
2022-09-25T10:16:42.974Z,17.55
2022-09-25T10:19:09.262Z,17.57
2022-09-25T10:21:40.258Z,17.61
2022-09-25T10:24:07.157Z,17.65
2022-09-25T10:26:37.846Z,17.64
2022-09-25T10:29:27.650Z,17.67
2022-09-25T10:31:59.409Z,17.65
2022-09-25T10:34:28.153Z,17.66
2022-09-25T10:36:54.592Z,17.76
2022-09-25T10:39:50.749Z,17.80
2022-09-25T10:43:02.703Z,17.81
2022-09-25T10:45:30.950Z,17.83
2022-09-25T10:48:21.014Z,17.86
2022-09-25T10:51:06.781Z,17.81
2022-09-25T10:53:33.204Z,17.77
2022-09-25T10:56:06.559Z,17.74
2022-09-25T10:58:45.331Z,17.77
2022-09-25T11:01:13.722Z,17.80
2022-09-25T11:03:47.437Z,17.91
2022-09-25T11:06:23.632Z,17.94
2022-09-25T11:08:56.281Z,18.01
2022-09-25T11:11:26.826Z,18.08
2022-09-25T11:14:04.493Z,18.18
2022-09-25T11:16:54.308Z,18.26
2022-09-25T11:19:32.572Z,18.23
2022-09-25T11:22:19.293Z,18.20
2022-09-25T11:25:34.136Z,18.26
2022-09-25T11:28:23.567Z,18.29
2022-09-25T11:30:56.805Z,18.31
2022-09-25T11:33:42.159Z,18.29
2022-09-25T11:36:32.861Z,18.34
2022-09-25T11:39:26.003Z,18.37
2022-09-25T11:42:18.781Z,18.40
2022-09-25T11:45:08.706Z,18.47
2022-09-25T11:47:49.392Z,18.52
2022-09-25T11:50:17.006Z,18.53
2022-09-25T11:53:08.701Z,18.58
2022-09-25T11:55:52.642Z,18.51
2022-09-25T11:58:34.245Z,18.54
2022-09-25T12:01:14.943Z,18.58
2022-09-25T12:03:51.102Z,18.53
2022-09-25T12:06:34.948Z,18.47
2022-09-25T12:09:17.054Z,18.50
2022-09-25T12:11:58.890Z,18.52
2022-09-25T12:14:32.607Z,18.52
2022-09-25T12:17:09.980Z,18.57
2022-09-25T12:19:48.007Z,18.54
2022-09-25T12:22:33.382Z,18.58
2022-09-25T12:25:21.525Z,18.56
2022-09-25T12:28:19.332Z,18.58
2022-09-25T12:30:57.099Z,18.61
2022-09-25T12:33:43.252Z,18.62
2022-09-25T12:36:15.066Z,18.63
2022-09-25T12:38:48.873Z,18.68
2022-09-25T12:41:28.195Z,18.71
2022-09-25T12:44:01.481Z,18.74
2022-09-25T12:46:32.392Z,18.77
2022-09-25T12:49:02.650Z,18.75
2022-09-25T12:51:34.965Z,18.72
2022-09-25T12:54:06.988Z,18.78
2022-09-25T12:56:42.520Z,18.78
2022-09-25T12:59:42.569Z,18.77
2022-09-25T13:02:39.969Z,18.80
2022-09-25T13:05:35.788Z,18.79
2022-09-25T13:08:20.281Z,18.76
2022-09-25T13:10:53.974Z,18.72
2022-09-25T13:13:25.961Z,18.75
2022-09-25T13:15:55.977Z,18.66
2022-09-25T13:18:24.502Z,18.71
2022-09-25T13:20:56.022Z,18.59
2022-09-25T13:23:32.542Z,18.58
2022-09-25T13:26:02.375Z,18.61
2022-09-25T13:28:38.005Z,18.59
2022-09-25T13:31:09.920Z,18.54
2022-09-25T13:34:04.002Z,18.52
2022-09-25T13:36:47.633Z,18.52
2022-09-25T13:39:49.521Z,18.51
2022-09-25T13:42:37.832Z,18.49
2022-09-25T13:45:14.174Z,18.49
2022-09-25T13:47:53.333Z,18.53
2022-09-25T13:50:24.803Z,18.61
2022-09-25T13:53:18.807Z,18.63
2022-09-25T13:55:48.094Z,18.70
2022-09-25T13:58:25.537Z,18.78
2022-09-25T14:00:58.511Z,18.79
2022-09-25T14:03:30.262Z,18.79
2022-09-25T14:05:56.968Z,18.76
2022-09-25T14:08:23.807Z,18.73
2022-09-25T14:10:52.001Z,18.68
2022-09-25T14:13:23.602Z,18.64
2022-09-25T14:15:51.109Z,18.61
2022-09-25T14:18:36.288Z,18.48
2022-09-25T14:21:03.547Z,18.43
2022-09-25T14:23:33.211Z,18.44
2022-09-25T14:26:07.846Z,18.46
2022-09-25T14:28:45.042Z,18.43
2022-09-25T14:31:29.720Z,18.46
2022-09-25T14:34:12.994Z,18.46
2022-09-25T14:37:01.317Z,18.51
2022-09-25T14:39:30.023Z,18.59
2022-09-25T14:42:23.344Z,18.64
2022-09-25T14:45:23.724Z,18.64
2022-09-25T14:47:52.507Z,18.68
2022-09-25T14:50:26.188Z,18.63
2022-09-25T14:52:57.193Z,18.59
2022-09-25T14:55:26.751Z,18.48
2022-09-25T14:57:53.532Z,18.34
2022-09-25T15:00:24.187Z,18.38
2022-09-25T15:02:52.942Z,18.33
2022-09-25T15:05:31.418Z,18.32
2022-09-25T15:07:59.744Z,18.25
2022-09-25T15:10:34.682Z,18.29
2022-09-25T15:13:13.846Z,18.33
2022-09-25T15:15:40.371Z,18.37
2022-09-25T15:18:12.267Z,18.39
2022-09-25T15:20:45.246Z,18.32
2022-09-25T15:23:18.684Z,18.35
2022-09-25T15:25:48.406Z,18.39
2022-09-25T15:28:18.025Z,18.39
2022-09-25T15:30:44.710Z,18.37
2022-09-25T15:33:26.551Z,18.36
2022-09-25T15:36:03.503Z,18.32
2022-09-25T15:38:33.941Z,18.31
2022-09-25T15:41:00.844Z,18.23
2022-09-25T15:43:27.639Z,18.09
2022-09-25T15:46:03.136Z,18.03
2022-09-25T15:48:35.960Z,17.96
2022-09-25T15:51:15.010Z,17.88
2022-09-25T15:53:44.211Z,17.80
2022-09-25T15:56:25.931Z,17.74
2022-09-25T15:59:04.901Z,17.66
2022-09-25T16:02:05.622Z,17.61
2022-09-25T16:04:58.377Z,17.54
2022-09-25T16:07:33.401Z,17.47
2022-09-25T16:10:08.981Z,17.46
2022-09-25T16:12:50.354Z,17.42
2022-09-25T16:15:30.082Z,17.40
2022-09-25T16:18:24.464Z,17.38
2022-09-25T16:20:57.985Z,17.38
2022-09-25T16:23:29.801Z,17.34
2022-09-25T16:25:58.375Z,17.29
2022-09-25T16:28:30.288Z,17.26
2022-09-25T16:31:00.527Z,17.18
2022-09-25T16:33:31.139Z,17.13
2022-09-25T16:36:14.608Z,17.07
2022-09-25T16:39:03.353Z,17.05
2022-09-25T16:41:30.128Z,17.03
2022-09-25T16:44:23.461Z,17.00
2022-09-25T16:46:52.807Z,16.94
2022-09-25T16:49:22.157Z,16.91
2022-09-25T16:51:49.939Z,16.81
2022-09-25T16:54:19.275Z,16.78
2022-09-25T16:56:47.689Z,16.75
2022-09-25T16:59:22.442Z,16.74
2022-09-25T17:02:20.313Z,16.74
2022-09-25T17:04:46.834Z,16.74
2022-09-25T17:07:14.953Z,16.70
2022-09-25T17:09:41.376Z,16.70
2022-09-25T17:12:16.934Z,16.68
2022-09-25T17:14:43.371Z,16.65
2022-09-25T17:17:10.240Z,16.62
2022-09-25T17:19:36.623Z,16.59
2022-09-25T17:22:03.031Z,16.59
2022-09-25T17:24:30.447Z,16.57
2022-09-25T17:26:56.851Z,16.57
2022-09-25T17:29:23.256Z,16.56
2022-09-25T17:31:49.964Z,16.54
2022-09-25T17:34:24.905Z,16.53
2022-09-25T17:36:51.800Z,16.50
2022-09-25T17:39:18.222Z,16.47
2022-09-25T17:41:44.691Z,16.44
2022-09-25T17:44:16.084Z,16.45
2022-09-25T17:46:42.790Z,16.44
2022-09-25T17:49:09.208Z,16.40
2022-09-25T17:51:35.697Z,16.37
2022-09-25T17:54:02.646Z,16.36
2022-09-25T17:56:34.039Z,16.36
2022-09-25T17:59:02.067Z,16.33
2022-09-25T18:01:33.185Z,16.32
2022-09-25T18:04:17.264Z,16.29
2022-09-25T18:06:43.740Z,16.29
2022-09-25T18:09:10.422Z,16.26
2022-09-25T18:11:36.889Z,16.26
2022-09-25T18:14:03.309Z,16.26
2022-09-25T18:16:31.586Z,16.23
2022-09-25T18:19:17.280Z,16.20
2022-09-25T18:22:02.321Z,16.19
2022-09-25T18:24:28.960Z,16.14
2022-09-25T18:26:57.841Z,16.12
2022-09-25T18:29:24.253Z,16.09
2022-09-25T18:31:50.789Z,16.05
2022-09-25T18:34:18.107Z,16.04
2022-09-25T18:36:44.740Z,16.03
2022-09-25T18:39:13.838Z,16.03
2022-09-25T18:41:43.927Z,16.01
2022-09-25T18:44:10.420Z,15.99
2022-09-25T18:46:39.682Z,16.00
2022-09-25T18:49:06.653Z,16.00
2022-09-25T18:51:33.962Z,16.00
2022-09-25T18:54:00.500Z,16.02
2022-09-25T18:56:28.228Z,16.01
2022-09-25T18:58:54.639Z,16.01
2022-09-25T19:01:21.576Z,16.02
2022-09-25T19:03:52.003Z,16.00
2022-09-25T19:06:18.803Z,15.98
2022-09-25T19:08:51.563Z,15.98
2022-09-25T19:11:17.993Z,15.98
2022-09-25T19:13:44.481Z,15.97
2022-09-25T19:16:10.983Z,15.95
2022-09-25T19:18:37.544Z,15.93
2022-09-25T19:21:04.179Z,15.95
2022-09-25T19:23:33.938Z,15.92
2022-09-25T19:26:02.692Z,15.92
2022-09-25T19:28:30.758Z,15.90
2022-09-25T19:31:21.492Z,15.89
2022-09-25T19:33:48.373Z,15.87
2022-09-25T19:36:19.075Z,15.85
2022-09-25T19:38:46.102Z,15.83
2022-09-25T19:41:14.869Z,15.85
2022-09-25T19:43:41.661Z,15.84
2022-09-25T19:46:08.435Z,15.83
2022-09-25T19:48:34.964Z,15.82
2022-09-25T19:51:06.440Z,15.81
2022-09-25T19:53:33.007Z,15.80
2022-09-25T19:55:59.427Z,15.80
2022-09-25T19:58:25.827Z,15.79
2022-09-25T20:00:53.388Z,15.77
2022-09-25T20:03:20.164Z,15.75
2022-09-25T20:05:49.242Z,15.75
2022-09-25T20:08:15.803Z,15.75
2022-09-25T20:10:42.220Z,15.74
2022-09-25T20:13:09.720Z,15.73
2022-09-25T20:15:36.159Z,15.73
2022-09-25T20:18:02.584Z,15.72
2022-09-25T20:20:29.539Z,15.72
2022-09-25T20:22:56.570Z,15.70
2022-09-25T20:25:23.515Z,15.69
2022-09-25T20:27:51.014Z,15.68
2022-09-25T20:30:18.781Z,15.65
2022-09-25T20:32:45.490Z,15.64
2022-09-25T20:35:12.069Z,15.63
2022-09-25T20:37:38.522Z,15.62
2022-09-25T20:40:05.355Z,15.61
2022-09-25T20:42:33.740Z,15.60
2022-09-25T20:45:00.152Z,15.58
2022-09-25T20:47:33.645Z,15.56
2022-09-25T20:50:00.817Z,15.54
2022-09-25T20:52:28.038Z,15.52
2022-09-25T20:54:54.430Z,15.50
2022-09-25T20:57:20.823Z,15.48
2022-09-25T20:59:47.232Z,15.45
2022-09-25T21:02:13.900Z,15.44
2022-09-25T21:04:40.371Z,15.41
2022-09-25T21:07:06.774Z,15.38
2022-09-25T21:09:33.208Z,15.34
2022-09-25T21:12:00.010Z,15.30
2022-09-25T21:14:28.065Z,15.26
2022-09-25T21:16:58.963Z,15.24
2022-09-25T21:19:25.951Z,15.22
2022-09-25T21:21:52.349Z,15.19
2022-09-25T21:24:20.737Z,15.16
2022-09-25T21:26:47.205Z,15.14
2022-09-25T21:29:15.682Z,15.12
2022-09-25T21:31:46.788Z,15.09
2022-09-25T21:34:16.093Z,15.07
2022-09-25T21:36:43.376Z,15.05
2022-09-25T21:39:09.969Z,15.03
2022-09-25T21:41:36.530Z,15.02
2022-09-25T21:44:06.654Z,15.00
2022-09-25T21:46:34.694Z,14.99
2022-09-25T21:49:04.431Z,14.97
2022-09-25T21:51:33.443Z,14.95
2022-09-25T21:54:01.013Z,14.95
2022-09-25T21:56:29.024Z,14.92
2022-09-25T21:58:56.401Z,14.91
2022-09-25T22:01:25.741Z,14.89
2022-09-25T22:03:55.223Z,14.86
2022-09-25T22:06:23.568Z,14.84
2022-09-25T22:08:52.074Z,14.82
2022-09-25T22:11:19.170Z,14.80
2022-09-25T22:13:46.760Z,14.79
2022-09-25T22:16:21.616Z,14.78
2022-09-25T22:18:54.320Z,14.77
2022-09-25T22:21:22.901Z,14.76
2022-09-25T22:23:49.787Z,14.75
2022-09-25T22:26:17.336Z,14.75
2022-09-25T22:28:43.994Z,14.74
2022-09-25T22:31:19.539Z,14.73
2022-09-25T22:33:46.480Z,14.73
2022-09-25T22:36:13.281Z,14.73
2022-09-25T22:38:40.338Z,14.72
2022-09-25T22:41:09.382Z,14.71
2022-09-25T22:43:36.563Z,14.70
2022-09-25T22:46:03.662Z,14.69
2022-09-25T22:48:30.527Z,14.70
2022-09-25T22:51:00.731Z,14.68
2022-09-25T22:53:29.212Z,14.67
2022-09-25T22:55:55.621Z,14.66
2022-09-25T22:58:22.298Z,14.65
2022-09-25T23:00:51.469Z,14.66
2022-09-25T23:03:18.720Z,14.67
2022-09-25T23:05:45.307Z,14.65
2022-09-25T23:08:11.852Z,14.64
2022-09-25T23:11:02.549Z,14.64
2022-09-25T23:13:25.045Z,14.64
2022-09-25T23:15:51.821Z,14.62
2022-09-25T23:18:18.215Z,14.61
2022-09-25T23:20:44.590Z,14.62
2022-09-25T23:23:11.013Z,14.62
2022-09-25T23:25:37.396Z,14.61
2022-09-25T23:28:03.931Z,14.61
2022-09-25T23:30:31.844Z,14.60
2022-09-25T23:32:58.562Z,14.60
2022-09-25T23:35:25.000Z,14.58
2022-09-25T23:37:51.892Z,14.58
2022-09-25T23:40:18.672Z,14.57
2022-09-25T23:42:45.153Z,14.56
2022-09-25T23:45:11.780Z,14.55
2022-09-25T23:47:38.211Z,14.53
2022-09-25T23:50:05.147Z,14.52
2022-09-25T23:52:31.746Z,14.53
2022-09-25T23:54:59.301Z,14.52
2022-09-25T23:57:25.705Z,14.52
2022-09-25T23:59:52.132Z,14.52
